sensor_id;sensor_type;location;lat;lon;timestamp;pressure;altitude;pressure_sealevel;temperature;humidity
78986;BME280;68384;55.750;48.746;2023-10-08T00:01:20;96308.47;;;3.98;82.52
78986;BME280;68384;55.750;48.746;2023-10-08T00:03:49;96310.19;;;4.02;82.21
78986;BME280;68384;55.750;48.746;2023-10-08T00:06:26;96300.78;;;4.07;82.39
78986;BME280;68384;55.750;48.746;2023-10-08T00:08:54;96298.22;;;4.07;82.39
78986;BME280;68384;55.750;48.746;2023-10-08T00:11:28;96296.53;;;4.08;82.60
78986;BME280;68384;55.750;48.746;2023-10-08T00:13:58;96283.69;;;4.03;82.94
78986;BME280;68384;55.750;48.746;2023-10-08T00:16:27;96281.13;;;3.99;82.85
78986;BME280;68384;55.750;48.746;2023-10-08T00:18:55;96265.75;;;3.96;82.86
78986;BME280;68384;55.750;48.746;2023-10-08T00:21:27;96263.19;;;3.90;82.50
78986;BME280;68384;55.750;48.746;2023-10-08T00:23:56;96246.13;;;3.86;83.21
78986;BME280;68384;55.750;48.746;2023-10-08T00:26:28;96241.00;;;3.83;83.28
78986;BME280;68384;55.750;48.746;2023-10-08T00:29:02;96238.41;;;3.81;83.32
78986;BME280;68384;55.750;48.746;2023-10-08T00:31:34;96231.59;;;3.80;83.41
78986;BME280;68384;55.750;48.746;2023-10-08T00:34:08;96226.47;;;3.74;82.90
78986;BME280;68384;55.750;48.746;2023-10-08T00:36:41;96209.38;;;3.70;83.27
78986;BME280;68384;55.750;48.746;2023-10-08T00:39:12;96201.72;;;3.64;83.17
78986;BME280;68384;55.750;48.746;2023-10-08T00:42:01;96191.47;;;3.64;83.82
78986;BME280;68384;55.750;48.746;2023-10-08T00:44:31;96183.78;;;3.65;83.59
78986;BME280;68384;55.750;48.746;2023-10-08T00:47:03;96171.81;;;3.60;83.09
78986;BME280;68384;55.750;48.746;2023-10-08T00:49:32;96170.97;;;3.59;83.28
78986;BME280;68384;55.750;48.746;2023-10-08T00:52:15;96166.69;;;3.52;83.52
78986;BME280;68384;55.750;48.746;2023-10-08T00:54:43;96168.41;;;3.50;83.59
78986;BME280;68384;55.750;48.746;2023-10-08T00:57:33;96150.47;;;3.49;84.01
78986;BME280;68384;55.750;48.746;2023-10-08T01:00:07;96134.28;;;3.50;84.04
78986;BME280;68384;55.750;48.746;2023-10-08T01:02:42;96139.41;;;3.45;83.66
78986;BME280;68384;55.750;48.746;2023-10-08T01:05:13;96137.66;;;3.43;84.26
78986;BME280;68384;55.750;48.746;2023-10-08T01:07:46;96119.75;;;3.41;84.01
78986;BME280;68384;55.750;48.746;2023-10-08T01:10:18;96118.91;;;3.41;83.94
78986;BME280;68384;55.750;48.746;2023-10-08T01:12:47;96117.22;;;3.40;84.34
78986;BME280;68384;55.750;48.746;2023-10-08T01:15:30;96105.25;;;3.36;83.91
78986;BME280;68384;55.750;48.746;2023-10-08T01:17:58;96082.22;;;3.36;84.41
78986;BME280;68384;55.750;48.746;2023-10-08T01:20:28;96080.50;;;3.35;84.48
78986;BME280;68384;55.750;48.746;2023-10-08T01:23:05;96065.16;;;3.33;84.42
78986;BME280;68384;55.750;48.746;2023-10-08T01:25:41;96059.16;;;3.24;84.58
78986;BME280;68384;55.750;48.746;2023-10-08T01:28:10;96057.47;;;3.26;84.53
78986;BME280;68384;55.750;48.746;2023-10-08T01:30:47;96051.50;;;3.25;84.74
78986;BME280;68384;55.750;48.746;2023-10-08T01:33:15;96042.13;;;3.19;84.78
78986;BME280;68384;55.750;48.746;2023-10-08T01:35:48;96034.44;;;3.19;84.75
78986;BME280;68384;55.750;48.746;2023-10-08T01:38:18;96029.31;;;3.23;84.98
78986;BME280;68384;55.750;48.746;2023-10-08T01:40:51;96018.22;;;3.25;84.81
78986;BME280;68384;55.750;48.746;2023-10-08T01:43:18;95999.47;;;3.23;84.71
78986;BME280;68384;55.750;48.746;2023-10-08T01:45:46;96005.44;;;3.25;84.83
78986;BME280;68384;55.750;48.746;2023-10-08T01:48:18;96000.34;;;3.21;84.76
78986;BME280;68384;55.750;48.746;2023-10-08T01:50:47;95974.72;;;3.16;84.67
78986;BME280;68384;55.750;48.746;2023-10-08T01:53:15;95978.97;;;3.15;85.22
78986;BME280;68384;55.750;48.746;2023-10-08T01:55:43;95962.81;;;3.09;85.18
78986;BME280;68384;55.750;48.746;2023-10-08T01:58:17;95958.53;;;3.17;85.83
78986;BME280;68384;55.750;48.746;2023-10-08T02:00:45;95941.47;;;3.16;85.19
78986;BME280;68384;55.750;48.746;2023-10-08T02:03:15;95942.31;;;3.16;85.20
78986;BME280;68384;55.750;48.746;2023-10-08T02:05:46;95933.81;;;3.14;85.29
78986;BME280;68384;55.750;48.746;2023-10-08T02:08:14;95924.44;;;3.09;84.87
78986;BME280;68384;55.750;48.746;2023-10-08T02:10:44;95895.41;;;3.14;85.12
78986;BME280;68384;55.750;48.746;2023-10-08T02:13:14;95896.25;;;3.18;85.13
78986;BME280;68384;55.750;48.746;2023-10-08T02:15:45;95892.84;;;3.21;84.87
78986;BME280;68384;55.750;48.746;2023-10-08T02:18:15;95880.91;;;3.19;84.94
78986;BME280;68384;55.750;48.746;2023-10-08T02:20:42;95869.00;;;3.12;85.23
78986;BME280;68384;55.750;48.746;2023-10-08T02:23:11;95873.25;;;3.10;84.72
78986;BME280;68384;55.750;48.746;2023-10-08T02:25:39;95857.91;;;3.09;85.17
78986;BME280;68384;55.750;48.746;2023-10-08T02:28:08;95857.06;;;3.08;85.42
78986;BME280;68384;55.750;48.746;2023-10-08T02:30:40;95838.28;;;3.05;85.63
78986;BME280;68384;55.750;48.746;2023-10-08T02:33:08;95840.84;;;3.09;85.75
78986;BME280;68384;55.750;48.746;2023-10-08T02:35:46;95833.19;;;3.12;86.00
78986;BME280;68384;55.750;48.746;2023-10-08T02:38:16;95821.22;;;3.17;85.76
78986;BME280;68384;55.750;48.746;2023-10-08T02:40:44;95820.34;;;3.18;85.97
78986;BME280;68384;55.750;48.746;2023-10-08T02:43:16;95809.25;;;3.16;86.15
78986;BME280;68384;55.750;48.746;2023-10-08T02:45:45;95801.56;;;3.18;86.18
78986;BME280;68384;55.750;48.746;2023-10-08T02:48:17;95796.47;;;3.16;86.68
78986;BME280;68384;55.750;48.746;2023-10-08T02:50:48;95801.56;;;3.18;86.68
78986;BME280;68384;55.750;48.746;2023-10-08T02:53:15;95787.06;;;3.22;87.20
78986;BME280;68384;55.750;48.746;2023-10-08T02:55:48;95779.38;;;3.25;87.42
78986;BME280;68384;55.750;48.746;2023-10-08T02:58:17;95771.72;;;3.26;87.42
78986;BME280;68384;55.750;48.746;2023-10-08T03:00:48;95767.38;;;3.33;87.77
78986;BME280;68384;55.750;48.746;2023-10-08T03:03:16;95762.28;;;3.33;87.77
78986;BME280;68384;55.750;48.746;2023-10-08T03:05:51;95752.03;;;3.36;88.50
78986;BME280;68384;55.750;48.746;2023-10-08T03:08:20;95753.69;;;3.43;88.58
78986;BME280;68384;55.750;48.746;2023-10-08T03:10:52;95746.84;;;3.48;88.54
78986;BME280;68384;55.750;48.746;2023-10-08T03:13:23;95738.28;;;3.53;88.63
78986;BME280;68384;55.750;48.746;2023-10-08T03:15:50;95730.56;;;3.58;88.66
78986;BME280;68384;55.750;48.746;2023-10-08T03:18:30;95721.16;;;3.60;88.49
78986;BME280;68384;55.750;48.746;2023-10-08T03:21:06;95712.56;;;3.65;88.72
78986;BME280;68384;55.750;48.746;2023-10-08T03:23:50;95715.94;;;3.70;88.63
78986;BME280;68384;55.750;48.746;2023-10-08T03:26:19;95701.41;;;3.77;88.76
78986;BME280;68384;55.750;48.746;2023-10-08T03:29:03;95703.91;;;3.83;88.64
78986;BME280;68384;55.750;48.746;2023-10-08T03:31:43;95700.44;;;3.87;88.31
78986;BME280;68384;55.750;48.746;2023-10-08T03:34:17;95690.19;;;3.87;88.52
78986;BME280;68384;55.750;48.746;2023-10-08T03:36:48;95675.66;;;3.89;88.91
78986;BME280;68384;55.750;48.746;2023-10-08T03:39:18;95681.63;;;3.94;88.19
78986;BME280;68384;55.750;48.746;2023-10-08T03:41:47;95665.38;;;3.97;88.57
78986;BME280;68384;55.750;48.746;2023-10-08T03:44:33;95648.31;;;3.93;88.44
78986;BME280;68384;55.750;48.746;2023-10-08T03:47:05;95657.69;;;3.95;88.36
78986;BME280;68384;55.750;48.746;2023-10-08T03:49:39;95655.91;;;4.02;88.25
78986;BME280;68384;55.750;48.746;2023-10-08T03:52:13;95638.84;;;4.02;87.98
78986;BME280;68384;55.750;48.746;2023-10-08T03:54:41;95641.31;;;4.08;88.04
78986;BME280;68384;55.750;48.746;2023-10-08T03:57:16;95636.16;;;4.11;87.84
78986;BME280;68384;55.750;48.746;2023-10-08T03:59:53;95628.47;;;4.11;87.98
78986;BME280;68384;55.750;48.746;2023-10-08T04:02:27;95618.22;;;4.11;87.71
78986;BME280;68384;55.750;48.746;2023-10-08T04:05:08;95610.53;;;4.11;87.72
78986;BME280;68384;55.750;48.746;2023-10-08T04:07:48;95608.84;;;4.12;87.96
78986;BME280;68384;55.750;48.746;2023-10-08T04:10:32;95615.59;;;4.17;87.87
78986;BME280;68384;55.750;48.746;2023-10-08T04:13:05;95602.75;;;4.20;87.98
78986;BME280;68384;55.750;48.746;2023-10-08T04:15:36;95610.41;;;4.23;87.50
78986;BME280;68384;55.750;48.746;2023-10-08T04:18:09;95604.34;;;4.32;87.83
78986;BME280;68384;55.750;48.746;2023-10-08T04:20:37;95598.31;;;4.37;87.59
78986;BME280;68384;55.750;48.746;2023-10-08T04:23:06;95592.22;;;4.45;87.37
78986;BME280;68384;55.750;48.746;2023-10-08T04:25:41;95591.28;;;4.52;87.51
78986;BME280;68384;55.750;48.746;2023-10-08T04:28:10;95584.44;;;4.54;86.81
78986;BME280;68384;55.750;48.746;2023-10-08T04:30:44;95580.94;;;4.58;86.77
78986;BME280;68384;55.750;48.746;2023-10-08T04:33:14;95569.81;;;4.59;86.50
78986;BME280;68384;55.750;48.746;2023-10-08T04:35:43;95567.13;;;4.71;86.70
78986;BME280;68384;55.750;48.746;2023-10-08T04:38:21;95560.19;;;4.76;86.43
78986;BME280;68384;55.750;48.746;2023-10-08T04:40:56;95561.78;;;4.83;85.84
78986;BME280;68384;55.750;48.746;2023-10-08T04:43:29;95557.47;;;4.89;85.43
78986;BME280;68384;55.750;48.746;2023-10-08T04:45:58;95549.66;;;4.97;85.09
78986;BME280;68384;55.750;48.746;2023-10-08T04:48:26;95540.16;;;5.02;84.68
78986;BME280;68384;55.750;48.746;2023-10-08T04:50:59;95536.69;;;5.06;84.71
78986;BME280;68384;55.750;48.746;2023-10-08T04:53:33;95534.84;;;5.13;84.58
78986;BME280;68384;55.750;48.746;2023-10-08T04:56:06;95531.34;;;5.18;84.06
78986;BME280;68384;55.750;48.746;2023-10-08T04:58:34;95521.00;;;5.24;83.89
78986;BME280;68384;55.750;48.746;2023-10-08T05:01:04;95515.00;;;5.25;84.09
78986;BME280;68384;55.750;48.746;2023-10-08T05:03:51;95517.50;;;5.28;84.06
78986;BME280;68384;55.750;48.746;2023-10-08T05:06:30;95512.34;;;5.30;84.12
78986;BME280;68384;55.750;48.746;2023-10-08T05:09:10;95518.34;;;5.29;84.35
78986;BME280;68384;55.750;48.746;2023-10-08T05:11:50;95515.72;;;5.33;84.23
78986;BME280;68384;55.750;48.746;2023-10-08T05:14:24;95508.78;;;5.38;84.37
78986;BME280;68384;55.750;48.746;2023-10-08T05:17:06;95512.97;;;5.44;84.39
78986;BME280;68384;55.750;48.746;2023-10-08T05:19:40;95499.31;;;5.42;84.39
78986;BME280;68384;55.750;48.746;2023-10-08T05:22:08;95504.41;;;5.43;84.72
78986;BME280;68384;55.750;48.746;2023-10-08T05:24:49;95496.66;;;5.46;84.88
78986;BME280;68384;55.750;48.746;2023-10-08T05:27:40;95507.69;;;5.51;84.98
78986;BME280;68384;55.750;48.746;2023-10-08T05:30:25;95511.81;;;5.58;85.14
78986;BME280;68384;55.750;48.746;2023-10-08T05:33:05;95506.59;;;5.65;85.18
78986;BME280;68384;55.750;48.746;2023-10-08T05:35:41;95501.38;;;5.68;85.38
78986;BME280;68384;55.750;48.746;2023-10-08T05:38:13;95495.28;;;5.73;85.43
78986;BME280;68384;55.750;48.746;2023-10-08T05:40:43;95500.31;;;5.79;85.41
78986;BME280;68384;55.750;48.746;2023-10-08T05:43:36;95496.75;;;5.88;85.40
78986;BME280;68384;55.750;48.746;2023-10-08T05:46:06;95496.63;;;5.92;85.28
78986;BME280;68384;55.750;48.746;2023-10-08T05:48:51;95493.91;;;6.00;84.84
78986;BME280;68384;55.750;48.746;2023-10-08T05:51:36;95498.13;;;6.04;84.59
78986;BME280;68384;55.750;48.746;2023-10-08T05:54:22;95492.94;;;6.05;84.48
78986;BME280;68384;55.750;48.746;2023-10-08T05:57:05;95508.31;;;6.08;84.80
78986;BME280;68384;55.750;48.746;2023-10-08T06:02:31;95510.09;;;6.05;85.01
78986;BME280;68384;55.750;48.746;2023-10-08T06:05:07;95514.38;;;6.06;85.38
78986;BME280;68384;55.750;48.746;2023-10-08T06:07:53;95508.47;;;6.01;85.88
78986;BME280;68384;55.750;48.746;2023-10-08T06:10:27;95509.34;;;6.00;86.09
78986;BME280;68384;55.750;48.746;2023-10-08T06:15:51;95506.91;;;5.92;87.21
78986;BME280;68384;55.750;48.746;2023-10-08T06:18:33;95516.47;;;5.86;86.89
78986;BME280;68384;55.750;48.746;2023-10-08T06:21:02;95510.56;;;5.82;85.02
78986;BME280;68384;55.750;48.746;2023-10-08T06:23:40;95511.25;;;5.90;86.42
78986;BME280;68384;55.750;48.746;2023-10-08T06:26:09;95515.38;;;5.97;86.59
78986;BME280;68384;55.750;48.746;2023-10-08T06:28:38;95514.41;;;6.04;86.67
78986;BME280;68384;55.750;48.746;2023-10-08T06:31:07;95524.59;;;6.09;86.53
78986;BME280;68384;55.750;48.746;2023-10-08T06:33:40;95530.53;;;6.12;86.16
78986;BME280;68384;55.750;48.746;2023-10-08T06:36:09;95534.72;;;6.18;86.06
78986;BME280;68384;55.750;48.746;2023-10-08T06:38:43;95531.16;;;6.24;86.09
78986;BME280;68384;55.750;48.746;2023-10-08T06:41:12;95531.94;;;6.27;85.70
78986;BME280;68384;55.750;48.746;2023-10-08T06:43:42;95527.63;;;6.29;86.06
78986;BME280;68384;55.750;48.746;2023-10-08T06:46:31;95538.59;;;6.37;86.13
78986;BME280;68384;55.750;48.746;2023-10-08T06:49:03;95520.59;;;6.37;85.85
78986;BME280;68384;55.750;48.746;2023-10-08T06:51:32;95531.69;;;6.39;85.96
78986;BME280;68384;55.750;48.746;2023-10-08T06:54:00;95524.88;;;6.37;85.88
78986;BME280;68384;55.750;48.746;2023-10-08T06:56:30;95534.31;;;6.36;86.21
78986;BME280;68384;55.750;48.746;2023-10-08T06:59:04;95534.38;;;6.33;86.15
78986;BME280;68384;55.750;48.746;2023-10-08T07:01:32;95540.44;;;6.31;86.72
78986;BME280;68384;55.750;48.746;2023-10-08T07:04:13;95548.16;;;6.32;86.71
78986;BME280;68384;55.750;48.746;2023-10-08T07:06:42;95545.59;;;6.31;86.26
78986;BME280;68384;55.750;48.746;2023-10-08T07:09:14;95551.56;;;6.31;86.53
78986;BME280;68384;55.750;48.746;2023-10-08T07:11:57;95559.31;;;6.30;86.20
78986;BME280;68384;55.750;48.746;2023-10-08T07:14:27;95554.94;;;6.35;86.02
78986;BME280;68384;55.750;48.746;2023-10-08T07:16:56;95555.06;;;6.29;86.19
78986;BME280;68384;55.750;48.746;2023-10-08T07:19:30;95564.44;;;6.30;86.91
78986;BME280;68384;55.750;48.746;2023-10-08T07:22:08;95572.25;;;6.25;87.32
78986;BME280;68384;55.750;48.746;2023-10-08T07:24:46;95578.16;;;6.32;87.55
78986;BME280;68384;55.750;48.746;2023-10-08T07:27:19;95576.44;;;6.32;88.01
78986;BME280;68384;55.750;48.746;2023-10-08T07:29:52;95578.25;;;6.26;88.60
78986;BME280;68384;55.750;48.746;2023-10-08T07:32:24;95598.19;;;6.14;89.38
78986;BME280;68384;55.750;48.746;2023-10-08T07:34:53;95598.28;;;6.08;90.08
78986;BME280;68384;55.750;48.746;2023-10-08T07:37:31;95600.16;;;6.02;90.39
78986;BME280;68384;55.750;48.746;2023-10-08T07:39:59;95602.81;;;5.94;90.41
78986;BME280;68384;55.750;48.746;2023-10-08T07:42:30;95593.69;;;5.80;93.53
78986;BME280;68384;55.750;48.746;2023-10-08T07:44:59;95621.97;;;5.78;93.18
78986;BME280;68384;55.750;48.746;2023-10-08T07:47:30;95617.72;;;5.76;92.55
78986;BME280;68384;55.750;48.746;2023-10-08T07:49:58;95630.66;;;5.71;91.39
78986;BME280;68384;55.750;48.746;2023-10-08T07:52:25;95622.09;;;5.71;89.94
78986;BME280;68384;55.750;48.746;2023-10-08T07:54:54;95623.06;;;5.64;88.20
78986;BME280;68384;55.750;48.746;2023-10-08T07:57:21;95641.09;;;5.59;86.65
78986;BME280;68384;55.750;48.746;2023-10-08T07:59:55;95637.66;;;5.62;86.59
78986;BME280;68384;55.750;48.746;2023-10-08T08:02:37;95632.47;;;5.65;85.90
78986;BME280;68384;55.750;48.746;2023-10-08T08:05:06;95644.34;;;5.72;85.24
78986;BME280;68384;55.750;48.746;2023-10-08T08:07:33;95650.41;;;5.68;84.39
78986;BME280;68384;55.750;48.746;2023-10-08T08:10:01;95654.63;;;5.72;83.76
78986;BME280;68384;55.750;48.746;2023-10-08T08:12:31;95665.84;;;5.66;83.32
78986;BME280;68384;55.750;48.746;2023-10-08T08:15:02;95668.38;;;5.68;83.05
78986;BME280;68384;55.750;48.746;2023-10-08T08:17:42;95680.44;;;5.63;82.51
78986;BME280;68384;55.750;48.746;2023-10-08T08:20:11;95683.97;;;5.57;81.19
78986;BME280;68384;55.750;48.746;2023-10-08T08:22:45;95683.06;;;5.61;80.58
78986;BME280;68384;55.750;48.746;2023-10-08T08:25:24;95689.91;;;5.61;79.94
78986;BME280;68384;55.750;48.746;2023-10-08T08:28:02;95694.00;;;5.72;79.21
78986;BME280;68384;55.750;48.746;2023-10-08T08:39:35;95717.16;;;6.23;73.40
78986;BME280;68384;55.750;48.746;2023-10-08T08:42:04;95704.97;;;6.34;73.33
78986;BME280;68384;55.750;48.746;2023-10-08T08:44:37;95718.66;;;6.36;71.64
78986;BME280;68384;55.750;48.746;2023-10-08T08:47:14;95714.22;;;6.45;70.97
78986;BME280;68384;55.750;48.746;2023-10-08T08:49:46;95722.59;;;6.56;70.51
78986;BME280;68384;55.750;48.746;2023-10-08T08:52:15;95720.84;;;6.57;70.22
78986;BME280;68384;55.750;48.746;2023-10-08T08:54:42;95740.34;;;6.68;71.24
78986;BME280;68384;55.750;48.746;2023-10-08T08:57:10;95728.44;;;6.63;70.02
78986;BME280;68384;55.750;48.746;2023-10-08T08:59:55;95737.72;;;6.71;70.52
78986;BME280;68384;55.750;48.746;2023-10-08T09:02:25;95737.72;;;6.71;69.69
78986;BME280;68384;55.750;48.746;2023-10-08T09:04:53;95744.59;;;6.72;68.65
78986;BME280;68384;55.750;48.746;2023-10-08T09:07:23;95744.34;;;6.85;68.94
78986;BME280;68384;55.750;48.746;2023-10-08T09:09:56;95740.84;;;6.87;68.59
78986;BME280;68384;55.750;48.746;2023-10-08T09:12:26;95764.81;;;6.92;67.62
78986;BME280;68384;55.750;48.746;2023-10-08T09:15:00;95761.88;;;7.09;68.08
78986;BME280;68384;55.750;48.746;2023-10-08T09:17:35;95759.09;;;7.21;69.12
78986;BME280;68384;55.750;48.746;2023-10-08T09:20:02;95777.84;;;7.29;68.52
78986;BME280;68384;55.750;48.746;2023-10-08T09:22:34;95784.56;;;7.36;68.32
78986;BME280;68384;55.750;48.746;2023-10-08T09:25:02;95775.94;;;7.39;67.89
78986;BME280;68384;55.750;48.746;2023-10-08T09:27:35;95784.44;;;7.42;68.57
78986;BME280;68384;55.750;48.746;2023-10-08T09:30:07;95786.19;;;7.40;68.41
78986;BME280;68384;55.750;48.746;2023-10-08T09:32:39;95788.81;;;7.39;68.27
78986;BME280;68384;55.750;48.746;2023-10-08T09:35:09;95793.75;;;7.49;68.38
78986;BME280;68384;55.750;48.746;2023-10-08T09:37:38;95804.47;;;7.69;68.38
78986;BME280;68384;55.750;48.746;2023-10-08T09:40:07;95800.78;;;7.81;67.67
78986;BME280;68384;55.750;48.746;2023-10-08T09:42:38;95795.53;;;7.85;68.03
78986;BME280;68384;55.750;48.746;2023-10-08T09:45:06;95801.53;;;7.86;66.92
78986;BME280;68384;55.750;48.746;2023-10-08T09:47:38;95800.59;;;7.90;67.36
78986;BME280;68384;55.750;48.746;2023-10-08T09:50:08;95804.53;;;8.06;67.31
78986;BME280;68384;55.750;48.746;2023-10-08T09:52:56;95807.34;;;8.32;67.03
78986;BME280;68384;55.750;48.746;2023-10-08T09:55:29;95802.53;;;8.54;64.64
78986;BME280;68384;55.750;48.746;2023-10-08T09:57:56;95814.22;;;8.67;63.89
78986;BME280;68384;55.750;48.746;2023-10-08T10:00:26;95823.00;;;8.62;62.08
78986;BME280;68384;55.750;48.746;2023-10-08T10:03:01;95814.56;;;8.55;61.92
78986;BME280;68384;55.750;48.746;2023-10-08T10:05:31;95821.31;;;8.59;62.50
78986;BME280;68384;55.750;48.746;2023-10-08T10:07:59;95824.22;;;8.47;61.90
78986;BME280;68384;55.750;48.746;2023-10-08T10:13:00;95828.03;;;8.31;62.39
78986;BME280;68384;55.750;48.746;2023-10-08T10:15:28;95824.59;;;8.30;62.70
78986;BME280;68384;55.750;48.746;2023-10-08T10:18:08;95829.78;;;8.30;63.38
78986;BME280;68384;55.750;48.746;2023-10-08T10:20:44;95831.34;;;8.36;63.24
78986;BME280;68384;55.750;48.746;2023-10-08T10:24:12;95855.38;;;8.39;62.67
78986;BME280;68384;55.750;48.746;2023-10-08T10:26:34;95852.00;;;8.36;62.49
78986;BME280;68384;55.750;48.746;2023-10-08T10:31:49;95856.38;;;8.32;60.82
78986;BME280;68384;55.750;48.746;2023-10-08T10:34:23;95847.44;;;8.47;60.50
78986;BME280;68384;55.750;48.746;2023-10-08T10:36:57;95848.84;;;8.60;59.55
78986;BME280;68384;55.750;48.746;2023-10-08T10:39:36;95856.72;;;8.54;58.39
78986;BME280;68384;55.750;48.746;2023-10-08T10:42:09;95858.63;;;8.46;58.35
78986;BME280;68384;55.750;48.746;2023-10-08T10:44:50;95851.81;;;8.45;59.36
78986;BME280;68384;55.750;48.746;2023-10-08T10:47:17;95871.47;;;8.49;60.22
78986;BME280;68384;55.750;48.746;2023-10-08T10:49:47;95861.28;;;8.43;58.83
78986;BME280;68384;55.750;48.746;2023-10-08T10:52:23;95866.97;;;8.57;58.94
78986;BME280;68384;55.750;48.746;2023-10-08T10:55:12;95866.25;;;8.52;59.08
78986;BME280;68384;55.750;48.746;2023-10-08T10:57:50;95880.16;;;8.82;59.35
78986;BME280;68384;55.750;48.746;2023-10-08T11:00:31;95883.06;;;9.03;58.22
78986;BME280;68384;55.750;48.746;2023-10-08T11:03:04;95876.94;;;9.07;57.90
78986;BME280;68384;55.750;48.746;2023-10-08T11:05:39;95882.72;;;8.83;58.47
78986;BME280;68384;55.750;48.746;2023-10-08T11:08:07;95887.63;;;8.94;58.78
78986;BME280;68384;55.750;48.746;2023-10-08T11:10:37;95885.03;;;8.94;58.25
78986;BME280;68384;55.750;48.746;2023-10-08T11:13:06;95888.94;;;9.10;57.85
78986;BME280;68384;55.750;48.746;2023-10-08T11:15:44;95890.06;;;9.34;57.64
78986;BME280;68384;55.750;48.746;2023-10-08T11:18:18;95894.91;;;9.46;57.30
78986;BME280;68384;55.750;48.746;2023-10-08T11:20:48;95901.53;;;9.56;57.40
78986;BME280;68384;55.750;48.746;2023-10-08T11:23:40;95910.91;;;9.60;57.27
78986;BME280;68384;55.750;48.746;2023-10-08T11:26:09;95906.47;;;9.65;56.59
78986;BME280;68384;55.750;48.746;2023-10-08T11:28:38;95910.19;;;9.86;56.67
78986;BME280;68384;55.750;48.746;2023-10-08T11:31:17;95913.16;;;10.03;56.19
78986;BME280;68384;55.750;48.746;2023-10-08T11:33:47;95908.47;;;10.15;55.23
78986;BME280;68384;55.750;48.746;2023-10-08T11:36:23;95905.72;;;10.21;54.81
78986;BME280;68384;55.750;48.746;2023-10-08T11:39:09;95907.72;;;10.12;53.78
78986;BME280;68384;55.750;48.746;2023-10-08T11:41:38;95915.75;;;10.03;54.52
78986;BME280;68384;55.750;48.746;2023-10-08T11:44:18;95935.47;;;9.76;54.47
78986;BME280;68384;55.750;48.746;2023-10-08T11:46:50;95938.03;;;9.44;55.92
78986;BME280;68384;55.750;48.746;2023-10-08T11:49:24;95928.03;;;9.32;56.63
78986;BME280;68384;55.750;48.746;2023-10-08T11:51:52;95935.47;;;9.08;57.15
78986;BME280;68384;55.750;48.746;2023-10-08T11:54:23;95934.13;;;8.92;56.56
78986;BME280;68384;55.750;48.746;2023-10-08T11:56:50;95937.44;;;8.97;56.01
78986;BME280;68384;55.750;48.746;2023-10-08T11:59:18;95941.47;;;9.09;53.18
78986;BME280;68384;55.750;48.746;2023-10-08T12:01:45;95937.97;;;9.11;52.99
78986;BME280;68384;55.750;48.746;2023-10-08T12:04:13;95942.59;;;9.34;53.24
78986;BME280;68384;55.750;48.746;2023-10-08T12:06:45;95954.59;;;9.37;53.93
78986;BME280;68384;55.750;48.746;2023-10-08T12:09:19;95952.22;;;9.28;54.57
78986;BME280;68384;55.750;48.746;2023-10-08T12:11:49;95938.03;;;9.08;54.66
78986;BME280;68384;55.750;48.746;2023-10-08T12:14:16;95936.84;;;8.88;53.82
78986;BME280;68384;55.750;48.746;2023-10-08T12:16:43;95951.91;;;8.69;54.44
78986;BME280;68384;55.750;48.746;2023-10-08T12:19:13;95955.72;;;8.53;53.81
78986;BME280;68384;55.750;48.746;2023-10-08T12:21:44;95957.75;;;8.37;53.61
78986;BME280;68384;55.750;48.746;2023-10-08T12:24:15;95960.97;;;8.07;54.43
78986;BME280;68384;55.750;48.746;2023-10-08T12:26:44;95963.66;;;8.03;55.53
78986;BME280;68384;55.750;48.746;2023-10-08T12:29:17;95964.56;;;8.00;56.83
78986;BME280;68384;55.750;48.746;2023-10-08T12:31:45;95965.34;;;8.04;56.97
78986;BME280;68384;55.750;48.746;2023-10-08T12:34:16;95969.66;;;8.03;55.51
78986;BME280;68384;55.750;48.746;2023-10-08T12:36:44;95964.66;;;7.96;55.95
78986;BME280;68384;55.750;48.746;2023-10-08T12:39:15;95974.03;;;8.00;55.61
78986;BME280;68384;55.750;48.746;2023-10-08T12:41:44;95971.50;;;7.98;55.20
78986;BME280;68384;55.750;48.746;2023-10-08T12:44:12;95976.81;;;7.89;55.57
78986;BME280;68384;55.750;48.746;2023-10-08T12:46:43;95985.59;;;7.79;56.29
78986;BME280;68384;55.750;48.746;2023-10-08T12:49:11;95981.47;;;7.70;56.56
78986;BME280;68384;55.750;48.746;2023-10-08T12:51:39;95995.34;;;7.63;57.04
78986;BME280;68384;55.750;48.746;2023-10-08T12:54:09;95991.38;;;7.46;57.86
78986;BME280;68384;55.750;48.746;2023-10-08T12:56:42;95998.41;;;7.34;59.34
78986;BME280;68384;55.750;48.746;2023-10-08T12:59:15;96004.59;;;7.23;60.83
78986;BME280;68384;55.750;48.746;2023-10-08T13:01:52;96017.69;;;7.09;61.34
78986;BME280;68384;55.750;48.746;2023-10-08T13:04:23;96018.88;;;6.89;61.78
78986;BME280;68384;55.750;48.746;2023-10-08T13:06:58;96018.06;;;6.85;62.30
78986;BME280;68384;55.750;48.746;2023-10-08T13:09:30;96020.78;;;6.74;62.44
78986;BME280;68384;55.750;48.746;2023-10-08T13:12:05;96027.69;;;6.72;63.31
78986;BME280;68384;55.750;48.746;2023-10-08T13:14:32;96031.25;;;6.61;64.32
78986;BME280;68384;55.750;48.746;2023-10-08T13:17:03;96038.16;;;6.57;64.90
78986;BME280;68384;55.750;48.746;2023-10-08T13:19:34;96036.53;;;6.53;65.48
78986;BME280;68384;55.750;48.746;2023-10-08T13:22:02;96040.06;;;6.45;66.19
78986;BME280;68384;55.750;48.746;2023-10-08T13:24:36;96041.97;;;6.29;67.81
78986;BME280;68384;55.750;48.746;2023-10-08T13:27:03;96057.50;;;6.18;68.45
78986;BME280;68384;55.750;48.746;2023-10-08T13:29:34;96062.78;;;6.09;69.02
78986;BME280;68384;55.750;48.746;2023-10-08T13:32:02;96065.38;;;6.05;69.45
78986;BME280;68384;55.750;48.746;2023-10-08T13:34:32;96056.94;;;5.92;69.61
78986;BME280;68384;55.750;48.746;2023-10-08T13:36:59;96051.88;;;5.88;69.60
78986;BME280;68384;55.750;48.746;2023-10-08T13:39:27;96052.78;;;5.78;69.47
78986;BME280;68384;55.750;48.746;2023-10-08T13:41:54;96052.03;;;5.67;70.67
78986;BME280;68384;55.750;48.746;2023-10-08T13:44:24;96054.69;;;5.59;71.87
78986;BME280;68384;55.750;48.746;2023-10-08T13:46:58;96058.16;;;5.56;72.24
78986;BME280;68384;55.750;48.746;2023-10-08T13:49:28;96065.06;;;5.48;73.33